createdAt,value
2022-11-05T00:01:57.008Z,10.40
2022-11-05T00:07:36.652Z,10.30
2022-11-05T00:12:57.277Z,10.20
2022-11-05T00:17:59.105Z,10.20
2022-11-05T00:23:21.220Z,10.00
2022-11-05T00:28:23.275Z,10.10
2022-11-05T00:33:25.775Z,10.10
2022-11-05T00:38:29.118Z,10.10
2022-11-05T00:43:49.552Z,9.90
2022-11-05T00:49:09.757Z,9.90
2022-11-05T00:54:11.559Z,9.80
2022-11-05T00:59:13.370Z,9.70
2022-11-05T01:04:15.230Z,9.80
2022-11-05T01:09:17.034Z,9.80
2022-11-05T01:14:19.280Z,10.00
2022-11-05T01:19:21.075Z,10.00
2022-11-05T01:24:22.897Z,10.20
2022-11-05T01:29:24.775Z,10.30
2022-11-05T01:34:26.618Z,10.30
2022-11-05T01:39:28.501Z,10.40
2022-11-05T01:44:57.485Z,10.40
2022-11-05T01:50:04.337Z,10.20
2022-11-05T01:55:09.461Z,10.20
2022-11-05T02:00:11.998Z,10.10
2022-11-05T02:05:17.524Z,10.00
2022-11-05T02:10:20.837Z,10.00
2022-11-05T02:15:40.186Z,9.90
2022-11-05T02:21:05.351Z,9.80
2022-11-05T02:26:37.323Z,9.60
2022-11-05T02:31:48.220Z,9.60
2022-11-05T02:37:01.400Z,9.40
2022-11-05T02:42:19.019Z,9.30
2022-11-05T02:47:47.804Z,9.30
2022-11-05T02:53:00.591Z,9.10
2022-11-05T02:58:04.406Z,9.10
2022-11-05T03:03:10.537Z,9.00
2022-11-05T03:08:37.912Z,9.00
2022-11-05T03:14:00.011Z,9.00
2022-11-05T03:19:12.261Z,8.90
2022-11-05T03:24:20.387Z,8.90
2022-11-05T03:29:30.315Z,8.90
2022-11-05T03:34:37.616Z,8.90
2022-11-05T03:39:44.188Z,8.80
2022-11-05T03:44:52.597Z,8.80
2022-11-05T03:50:02.577Z,8.80
2022-11-05T03:55:05.557Z,8.70
2022-11-05T04:00:09.580Z,8.70
2022-11-05T04:05:13.693Z,8.70
2022-11-05T04:10:34.079Z,8.60
2022-11-05T04:15:55.844Z,8.60
2022-11-05T04:21:16.045Z,8.50
2022-11-05T04:26:23.230Z,8.50
2022-11-05T04:31:25.173Z,8.60
2022-11-05T04:36:27.053Z,8.60
2022-11-05T04:41:28.954Z,8.60
2022-11-05T04:46:30.739Z,8.60
2022-11-05T04:51:32.873Z,8.50
2022-11-05T04:56:34.675Z,8.50
2022-11-05T05:01:36.670Z,8.50
2022-11-05T05:06:38.838Z,8.60
2022-11-05T05:11:41.115Z,8.70
2022-11-05T05:16:42.942Z,8.70
2022-11-05T05:21:44.789Z,8.70
2022-11-05T05:26:51.020Z,8.80
2022-11-05T05:31:52.825Z,8.70
2022-11-05T05:36:54.777Z,8.70
2022-11-05T05:41:56.661Z,8.70
2022-11-05T05:46:58.511Z,8.80
2022-11-05T05:52:00.381Z,8.70
2022-11-05T05:57:02.940Z,8.70
2022-11-05T06:02:04.906Z,8.50
2022-11-05T06:07:07.754Z,8.50
2022-11-05T06:12:09.575Z,8.60
2022-11-05T06:17:11.412Z,8.50
2022-11-05T06:22:13.402Z,8.50
2022-11-05T06:27:15.218Z,8.50
2022-11-05T06:32:17.043Z,8.60
2022-11-05T06:37:18.920Z,8.50
2022-11-05T06:42:20.717Z,8.60
2022-11-05T06:47:22.625Z,8.50
2022-11-05T06:52:24.546Z,8.60
2022-11-05T06:57:26.363Z,8.50
2022-11-05T07:02:28.253Z,8.60
2022-11-05T07:07:30.124Z,8.60
2022-11-05T07:12:31.950Z,8.60
2022-11-05T07:17:33.763Z,8.70
2022-11-05T07:22:36.496Z,8.60
2022-11-05T07:27:40.104Z,8.70
2022-11-05T07:32:42.529Z,8.60
2022-11-05T07:37:46.120Z,8.60
2022-11-05T07:42:53.629Z,8.70
2022-11-05T07:48:00.716Z,8.70
2022-11-05T07:53:04.727Z,8.70
2022-11-05T07:58:06.671Z,8.70
2022-11-05T08:03:19.059Z,8.60
2022-11-05T08:08:21.328Z,8.70
2022-11-05T08:13:23.211Z,8.70
2022-11-05T08:18:31.500Z,8.70
2022-11-05T08:23:33.712Z,8.70
2022-11-05T08:28:35.586Z,8.60
2022-11-05T08:33:37.452Z,8.70
2022-11-05T08:38:39.276Z,8.70
2022-11-05T08:43:41.147Z,8.60
2022-11-05T08:48:42.962Z,8.50
2022-11-05T08:53:44.820Z,8.50
2022-11-05T08:58:46.724Z,8.50
2022-11-05T09:03:52.254Z,8.60
2022-11-05T09:08:54.397Z,8.70
2022-11-05T09:13:56.279Z,8.60
2022-11-05T09:18:58.126Z,8.70
2022-11-05T09:24:00.153Z,8.90
2022-11-05T09:29:02.107Z,8.90
2022-11-05T09:34:03.948Z,8.80
2022-11-05T09:39:06.018Z,8.80
2022-11-05T09:44:18.607Z,8.80
2022-11-05T09:49:25.741Z,8.90
2022-11-05T09:54:31.975Z,8.90
2022-11-05T09:59:37.422Z,9.00
2022-11-05T10:04:41.816Z,9.00
2022-11-05T10:09:49.717Z,9.10
2022-11-05T10:15:21.931Z,9.10
2022-11-05T10:20:34.048Z,9.20
2022-11-05T10:25:39.475Z,9.30
2022-11-05T10:30:41.595Z,9.50
2022-11-05T10:35:50.074Z,9.50
2022-11-05T10:41:13.825Z,9.50
2022-11-05T10:46:33.851Z,9.60
2022-11-05T10:51:36.007Z,9.60
2022-11-05T10:56:40.479Z,9.60
2022-11-05T11:01:42.579Z,9.50
2022-11-05T11:06:50.706Z,9.50
2022-11-05T11:12:20.484Z,9.40
2022-11-05T11:17:28.334Z,9.50
2022-11-05T11:22:30.416Z,9.40
2022-11-05T11:27:34.920Z,9.40
2022-11-05T11:32:39.162Z,9.40
2022-11-05T11:37:42.211Z,9.50
2022-11-05T11:42:53.641Z,9.50
2022-11-05T11:47:57.269Z,9.50
2022-11-05T11:53:20.969Z,9.50
2022-11-05T11:58:25.682Z,9.50
2022-11-05T12:03:49.240Z,9.40
2022-11-05T12:09:08.265Z,9.30
2022-11-05T12:14:21.979Z,9.30
2022-11-05T12:19:35.721Z,9.40
2022-11-05T12:24:56.089Z,9.30
2022-11-05T12:30:11.357Z,9.50
2022-11-05T12:35:36.631Z,9.50
2022-11-05T12:40:50.454Z,9.50
2022-11-05T12:46:29.072Z,9.50
2022-11-05T12:51:56.250Z,9.50
2022-11-05T12:57:03.569Z,9.50
2022-11-05T13:02:26.037Z,9.50
2022-11-05T13:07:31.871Z,9.50
2022-11-05T13:12:38.198Z,9.50
2022-11-05T13:17:55.129Z,9.40
2022-11-05T13:23:03.436Z,9.40
2022-11-05T13:28:23.554Z,9.40
2022-11-05T13:33:36.608Z,9.50
2022-11-05T13:39:00.267Z,9.40
2022-11-05T13:44:40.452Z,9.40
2022-11-05T13:49:51.858Z,9.40
2022-11-05T13:54:56.668Z,9.40
2022-11-05T14:00:19.063Z,9.50
2022-11-05T14:05:33.943Z,9.40
2022-11-05T14:10:45.643Z,9.30
2022-11-05T14:16:20.377Z,9.30
2022-11-05T14:21:28.220Z,9.30
2022-11-05T14:26:33.187Z,9.40
2022-11-05T14:32:08.462Z,9.40
2022-11-05T14:37:10.966Z,9.30
2022-11-05T14:42:22.198Z,9.20
2022-11-05T14:47:29.038Z,9.10
2022-11-05T14:52:32.204Z,9.10
2022-11-05T14:57:43.313Z,9.00
2022-11-05T15:02:56.999Z,9.00
2022-11-05T15:07:59.586Z,9.10
2022-11-05T15:13:06.113Z,9.10
2022-11-05T15:18:28.091Z,9.00
2022-11-05T15:23:43.538Z,9.00
2022-11-05T15:28:51.220Z,9.00
2022-11-05T15:34:22.928Z,8.80
2022-11-05T15:39:46.055Z,8.80
2022-11-05T15:44:55.068Z,8.80
2022-11-05T15:50:02.449Z,8.80
2022-11-05T15:55:13.827Z,8.80
2022-11-05T16:00:18.779Z,8.90
2022-11-05T16:05:21.706Z,8.70
2022-11-05T16:10:28.591Z,8.70
2022-11-05T16:15:32.847Z,8.60
2022-11-05T16:20:37.067Z,8.60
2022-11-05T16:25:47.187Z,8.50
2022-11-05T16:31:00.905Z,8.60
2022-11-05T16:36:02.763Z,8.50
2022-11-05T16:41:04.599Z,8.50
2022-11-05T16:46:06.494Z,8.40
2022-11-05T16:51:13.682Z,8.40
2022-11-05T16:56:20.512Z,8.40
2022-11-05T17:01:24.175Z,8.50
2022-11-05T17:06:26.040Z,8.40
2022-11-05T17:11:28.236Z,8.50
2022-11-05T17:16:30.378Z,8.50
2022-11-05T17:21:32.158Z,8.40
2022-11-05T17:26:34.746Z,8.40
2022-11-05T17:31:36.569Z,8.50
2022-11-05T17:36:38.442Z,8.50
2022-11-05T17:41:40.308Z,8.30
2022-11-05T17:46:42.193Z,8.40
2022-11-05T17:51:44.040Z,8.30
2022-11-05T17:56:45.874Z,8.40
2022-11-05T18:01:48.801Z,8.40
2022-11-05T18:06:50.742Z,8.20
2022-11-05T18:11:52.596Z,8.30
2022-11-05T18:17:00.014Z,8.40
2022-11-05T18:22:01.885Z,8.30
2022-11-05T18:27:03.879Z,8.40
2022-11-05T18:32:06.176Z,8.40
2022-11-05T18:37:07.975Z,8.40
2022-11-05T18:42:10.746Z,8.40
2022-11-05T18:47:12.845Z,8.30
2022-11-05T18:52:14.714Z,8.30
2022-11-05T18:57:16.576Z,8.30
2022-11-05T19:02:18.678Z,8.30
2022-11-05T19:07:23.810Z,8.30
2022-11-05T19:12:25.623Z,8.30
2022-11-05T19:17:27.456Z,8.40
2022-11-05T19:22:29.406Z,8.40
2022-11-05T19:27:31.630Z,8.50
2022-11-05T19:32:33.484Z,8.40
2022-11-05T19:37:35.323Z,8.40
2022-11-05T19:42:37.197Z,8.40
2022-11-05T19:47:39.071Z,8.40
2022-11-05T19:52:40.893Z,8.40
2022-11-05T19:57:42.824Z,8.40
2022-11-05T20:02:45.919Z,8.50
2022-11-05T20:07:52.802Z,8.50
2022-11-05T20:12:55.044Z,8.50
2022-11-05T20:17:56.905Z,8.30
2022-11-05T20:23:00.208Z,8.30
2022-11-05T20:28:02.089Z,8.40
2022-11-05T20:33:04.068Z,8.40
2022-11-05T20:38:05.980Z,8.40
2022-11-05T20:43:08.073Z,8.40
2022-11-05T20:48:10.466Z,8.40
2022-11-05T20:53:13.170Z,8.40
2022-11-05T20:58:17.469Z,8.30
2022-11-05T21:03:19.926Z,8.30
2022-11-05T21:08:22.476Z,8.30
2022-11-05T21:13:25.763Z,8.40
2022-11-05T21:18:30.303Z,8.40
2022-11-05T21:23:32.190Z,8.40
2022-11-05T21:28:34.674Z,8.30
2022-11-05T21:33:36.594Z,8.30
2022-11-05T21:38:39.608Z,8.30
2022-11-05T21:43:42.378Z,8.30
2022-11-05T21:48:44.194Z,8.30
2022-11-05T21:54:05.021Z,8.30
2022-11-05T21:59:25.393Z,8.30
2022-11-05T22:04:32.237Z,8.30
2022-11-05T22:09:34.069Z,8.30
2022-11-05T22:14:36.019Z,8.30
2022-11-05T22:19:38.097Z,8.30
2022-11-05T22:24:41.277Z,8.20
2022-11-05T22:29:43.262Z,8.30
2022-11-05T22:34:45.176Z,8.40
2022-11-05T22:39:46.989Z,8.40
2022-11-05T22:44:48.860Z,8.30
2022-11-05T22:49:51.032Z,8.30
2022-11-05T22:54:52.873Z,8.20
2022-11-05T22:59:54.678Z,8.20
2022-11-05T23:04:56.476Z,8.20
2022-11-05T23:10:21.309Z,8.20
2022-11-05T23:15:41.647Z,8.20
2022-11-05T23:21:02.263Z,8.10
2022-11-05T23:26:24.104Z,8.10
2022-11-05T23:31:49.027Z,8.20
2022-11-05T23:37:09.795Z,8.30
2022-11-05T23:42:30.753Z,8.30
2022-11-05T23:47:51.260Z,8.20
2022-11-05T23:52:53.784Z,8.10
2022-11-05T23:57:55.643Z,7.90
